Главная страница
METAR-TAF:

METAR-TAF

Аэропорты :

Vojens, Дания

широта: 55-14N, долгота: 009-16E, высота над уровнем моря: 43 м

Текущие метеонаблюдения

Эта сводка был подготовлена 35 минут назад, в 16:20 UTC
Ветер 12 Узел от западно-северо-западный
Температура 16°C
Влажность 72%
Давление 1010 hPa
Видимость 10 км и более
Отдельные облака на высоте 2000 фута

METAR: EKSP 221620Z 30012KT 9999 SCT020 16/11 Q1010

Время: 18:55 (16:55 UTC)

Прогноз

Эта сводка был подготовлена 2 часа и 52 минут назад, в 14:03 UTC
Прогноз действительный с 22-го 15 UTC до 23-го 15 UTC
Ветер 12 Узел от западный
Видимость 10 км и более
Отдельные облака на высоте 1500 фута
Вероятность 40%
С 22-го 21 UTC до 23-го 06 UTC
Видимость: 2500 м
дымка
временами
С 22-го 22 UTC до 23-го 07 UTC
Рассеянная облачность на высоте 800 фута

TAF: EKSP 221403Z 2215/2315 28012KT 9999 SCT015 PROB40 2221/2306 2500 BR TEMPO 2222/2307 BKN008

Метеонаблюдения и прогнозы для более 4000 аэропортов (сводки METAR и TAF).

Имеющиеся станции представлены на карте желтыми и красными точками.

Чтобы увидеть название станции, наведите на нее мышь.

Затем щелкните, чтобы увидеть метеонаблюдения и метеопрогнозы.

Управление картой: чтобы увеличить масштаб, щелкните зеленые кнопки с черным крестиком; чтобы уменьшить масштаб, щелкните зеленую кнопку с тире; для просмотра соседних карт щелкайте зеленые стрелки.


METAR-TAF: